Terminal Aerodrome Forecast
Issued by NWS

Home | Current Version | Previous Version | Graphics & Text | Print | Product List | Glossary On
Versions: 1 2 3 4 5 6 7 8 9 10 11 12 13 14 15 16 17 18 19 20 21 22
528
FTUS43 KICT 160924 AAA
TAFCNU
TAF AMD
KCNU 160924Z 1609/1706 11008KT P6SM -RA OVC005 WS020/15050KT
      TEMPO 1609/1612 3SM -RA
     FM161200 12008KT 1SM -DZ BR OVC003 WS020/15050KT
      TEMPO 1612/1615 4SM -RA BR
     FM161500 16009KT P6SM VCSH OVC003
     FM161900 21010KT P6SM OVC008
     FM162000 21010KT P6SM OVC012
     FM170200 26008KT P6SM BKN012=

USA.gov is the U.S. government's official web portal to all federal, state and local government web resources and services.